Time;durP1;ratioP1;P1;durP2;ratioP2;P2;SDS_P1;SDS_P2;PMS_P1;PMS_P2;Temp;Humidity;BMP_temperature;BMP_pressure;BME280_temperature;BME280_humidity;BME280_pressure;Samples;Min_cycle;Max_cycle;Signal;HPM_P1;HPM_P2
2022/03/09 00:01:10;;;;;;;;;;;4.90;44.30;;;;;;5097026;28;19908;-61
2022/03/09 00:03:36;;;;;;;;;;;5.00;44.00;;;;;;5096888;28;19930;-61
2022/03/09 00:06:01;;;;;;;;;;;5.10;43.50;;;;;;5096941;28;19912;-63
2022/03/09 00:08:27;;;;;;;;;;;5.20;43.40;;;;;;5095336;28;19908;-60
2022/03/09 00:10:54;;;;;;;;;;;5.10;43.90;;;;;;5096807;28;19932;-63
2022/03/09 00:13:19;;;;;;;;;;;5.00;44.10;;;;;;5096859;28;19954;-62
2022/03/09 00:15:45;;;;;;;;;;;5.00;44.60;;;;;;5096458;28;20344;-62
2022/03/09 00:18:11;;;;;;;;;;;4.90;44.60;;;;;;5096572;28;19965;-61
2022/03/09 00:20:36;;;;;;;;;;;4.90;44.80;;;;;;5096356;28;20002;-64
2022/03/09 00:23:02;;;;;;;;;;;4.90;44.80;;;;;;5096426;28;19909;-62
2022/03/09 00:25:27;;;;;;;;;;;5.10;43.80;;;;;;5096337;28;19908;-62
2022/03/09 00:27:53;;;;;;;;;;;5.20;43.70;;;;;;5096284;28;19908;-63
2022/03/09 00:30:18;;;;;;;;;;;5.10;44.00;;;;;;5095386;28;19908;-62
2022/03/09 00:32:44;;;;;;;;;;;5.00;43.90;;;;;;5096154;28;19908;-62
2022/03/09 00:35:09;;;;;;;;;;;5.00;43.90;;;;;;5096547;28;20275;-62
2022/03/09 00:37:35;;;;;;;;;;;5.00;43.60;;;;;;5096107;28;19923;-61
2022/03/09 00:40:01;;;;;;;;;;;5.00;43.50;;;;;;5096039;28;20355;-62
2022/03/09 00:42:27;;;;;;;;;;;5.00;43.60;;;;;;5096838;28;21063;-61
2022/03/09 00:44:52;;;;;;;;;;;4.90;43.90;;;;;;5096114;28;20321;-63
2022/03/09 00:47:18;;;;;;;;;;;4.80;44.20;;;;;;5096545;28;19915;-62
2022/03/09 00:49:43;;;;;;;;;;;4.80;44.50;;;;;;5096254;28;19977;-62
2022/03/09 00:52:09;;;;;;;;;;;4.60;45.40;;;;;;5096043;28;20348;-63
2022/03/09 00:54:34;;;;;;;;;;;4.60;45.40;;;;;;5095884;28;19908;-63
2022/03/09 00:57:00;;;;;;;;;;;4.60;45.70;;;;;;5095691;28;20264;-62
2022/03/09 00:59:25;;;;;;;;;;;4.60;45.10;;;;;;5095730;28;19963;-63
2022/03/09 01:01:51;;;;;;;;;;;4.60;44.70;;;;;;5096271;28;19915;-62
2022/03/09 01:04:16;;;;;;;;;;;4.60;44.90;;;;;;5097249;28;19912;-62
2022/03/09 01:06:42;;;;;;;;;;;4.50;45.00;;;;;;5096508;28;19908;-63
2022/03/09 01:09:08;;;;;;;;;;;4.50;45.30;;;;;;5096383;28;20241;-63
2022/03/09 01:11:33;;;;;;;;;;;4.40;45.70;;;;;;5095714;28;19919;-63
2022/03/09 01:13:59;;;;;;;;;;;4.50;46.40;;;;;;5096155;28;19919;-63
2022/03/09 01:16:24;;;;;;;;;;;4.50;46.20;;;;;;5095276;28;19916;-63
2022/03/09 01:18:50;;;;;;;;;;;4.50;45.60;;;;;;5095721;28;19955;-61
2022/03/09 01:21:15;;;;;;;;;;;4.60;44.90;;;;;;5095774;28;19915;-62
2022/03/09 01:23:41;;;;;;;;;;;4.50;44.50;;;;;;5110991;28;19908;-63
2022/03/09 01:26:07;;;;;;;;;;;4.50;45.10;;;;;;5104262;28;19912;-63
2022/03/09 01:28:32;;;;;;;;;;;4.50;45.20;;;;;;5095428;28;19915;-61
2022/03/09 01:30:58;;;;;;;;;;;4.50;45.00;;;;;;5095571;28;19952;-64
2022/03/09 01:33:23;;;;;;;;;;;4.50;45.10;;;;;;5095548;28;20355;-63
2022/03/09 01:35:49;;;;;;;;;;;4.50;44.50;;;;;;5095202;28;20036;-62
2022/03/09 01:38:14;;;;;;;;;;;4.40;45.10;;;;;;5095865;28;19908;-63
2022/03/09 01:40:40;;;;;;;;;;;4.30;45.90;;;;;;5095398;28;19914;-61
2022/03/09 01:43:05;;;;;;;;;;;4.20;46.70;;;;;;5095504;28;20412;-63
2022/03/09 01:45:31;;;;;;;;;;;4.40;45.90;;;;;;5095414;28;20340;-63
2022/03/09 01:47:57;;;;;;;;;;;4.40;45.40;;;;;;5095395;28;19947;-65
2022/03/09 01:50:22;;;;;;;;;;;4.80;44.10;;;;;;5095322;28;19908;-61
2022/03/09 01:52:48;;;;;;;;;;;4.80;43.60;;;;;;5095357;28;20275;-61
2022/03/09 01:55:14;;;;;;;;;;;4.80;43.70;;;;;;5095002;28;20272;-61
2022/03/09 01:57:41;;;;;;;;;;;4.70;43.80;;;;;;5095656;28;19924;-61
2022/03/09 02:00:07;;;;;;;;;;;4.70;44.10;;;;;;5095790;28;19908;-64
2022/03/09 02:02:32;;;;;;;;;;;4.60;44.70;;;;;;5095589;28;19908;-62
2022/03/09 02:04:58;;;;;;;;;;;4.60;44.30;;;;;;5095139;28;20056;-63
2022/03/09 02:09:41;;;;;;;;;;;4.70;44.30;;;;;;5094787;28;19908;-62
2022/03/09 02:10:10;;;;;;;;;;;4.60;44.50;;;;;;5094577;28;20393;-61
2022/03/09 02:12:36;;;;;;;;;;;4.50;44.60;;;;;;5095134;28;19916;-61
2022/03/09 02:15:02;;;;;;;;;;;4.60;44.70;;;;;;5095944;28;19908;-62
2022/03/09 02:17:28;;;;;;;;;;;4.50;45.00;;;;;;5095975;28;20062;-61
2022/03/09 02:19:55;;;;;;;;;;;4.60;44.90;;;;;;5095985;28;19920;-61
2022/03/09 02:22:29;;;;;;;;;;;4.60;44.20;;;;;;5095488;28;19980;-62
2022/03/09 02:24:55;;;;;;;;;;;4.60;43.90;;;;;;5095704;28;20002;-62
2022/03/09 02:27:20;;;;;;;;;;;4.80;43.70;;;;;;5096210;28;19934;-62
2022/03/09 02:29:46;;;;;;;;;;;4.60;43.70;;;;;;5096199;28;19916;-62
2022/03/09 02:32:12;;;;;;;;;;;4.50;44.00;;;;;;5096991;28;19908;-62
2022/03/09 02:34:38;;;;;;;;;;;4.30;44.20;;;;;;5096513;28;20363;-61
2022/03/09 02:37:03;;;;;;;;;;;4.30;44.40;;;;;;5096022;28;20015;-61
2022/03/09 02:39:29;;;;;;;;;;;4.30;44.50;;;;;;5096105;28;19908;-61
2022/03/09 02:41:54;;;;;;;;;;;4.20;44.70;;;;;;5095552;28;19908;-61
2022/03/09 02:44:20;;;;;;;;;;;4.20;44.90;;;;;;5094438;28;19916;-61
2022/03/09 02:46:45;;;;;;;;;;;4.20;44.90;;;;;;5094456;28;19950;-62
2022/03/09 02:49:11;;;;;;;;;;;4.10;45.20;;;;;;5094397;28;20313;-62
2022/03/09 02:51:37;;;;;;;;;;;4.10;45.50;;;;;;5094848;28;19915;-62
2022/03/09 02:54:02;;;;;;;;;;;4.10;45.20;;;;;;5095099;28;19916;-62
2022/03/09 02:56:28;;;;;;;;;;;4.10;45.00;;;;;;5094574;28;19916;-62
2022/03/09 02:58:53;;;;;;;;;;;4.00;45.20;;;;;;5105330;28;19955;-63
2022/03/09 03:01:19;;;;;;;;;;;4.00;46.10;;;;;;5105332;28;19914;-61
2022/03/09 03:03:44;;;;;;;;;;;3.90;46.40;;;;;;5106121;28;19933;-61
2022/03/09 03:06:11;;;;;;;;;;;3.80;46.70;;;;;;5107970;28;19908;-61
2022/03/09 03:08:39;;;;;;;;;;;3.80;46.50;;;;;;5102080;28;20351;-62
2022/03/09 03:11:06;;;;;;;;;;;3.90;46.40;;;;;;5095145;28;19908;-61
2022/03/09 03:13:32;;;;;;;;;;;3.90;46.70;;;;;;5095024;28;20328;-60
2022/03/09 03:15:57;;;;;;;;;;;3.80;46.90;;;;;;5094311;28;19920;-61
2022/03/09 03:18:23;;;;;;;;;;;3.90;47.20;;;;;;5096271;28;20472;-60
2022/03/09 03:20:54;;;;;;;;;;;3.80;47.20;;;;;;5099904;28;20007;-62
2022/03/09 03:23:21;;;;;;;;;;;3.80;47.20;;;;;;5100142;28;19963;-61
2022/03/09 03:25:46;;;;;;;;;;;3.70;47.80;;;;;;5099767;28;19909;-63
2022/03/09 03:28:12;;;;;;;;;;;3.80;47.90;;;;;;5099119;28;19908;-62
2022/03/09 03:30:37;;;;;;;;;;;3.80;47.60;;;;;;5099363;28;19908;-62
2022/03/09 03:33:03;;;;;;;;;;;3.80;47.20;;;;;;5100409;28;20348;-62
2022/03/09 03:35:28;;;;;;;;;;;3.90;46.80;;;;;;5100446;28;19916;-61
2022/03/09 03:37:54;;;;;;;;;;;3.90;46.50;;;;;;5099884;28;19916;-61
2022/03/09 03:40:19;;;;;;;;;;;4.00;46.40;;;;;;5100995;28;19939;-62
2022/03/09 03:42:45;;;;;;;;;;;4.00;46.70;;;;;;5098404;28;19961;-62
2022/03/09 03:45:10;;;;;;;;;;;3.90;47.10;;;;;;5101528;28;20339;-63
2022/03/09 03:47:36;;;;;;;;;;;3.80;47.40;;;;;;5100661;28;20301;-62
2022/03/09 03:50:02;;;;;;;;;;;3.70;48.10;;;;;;5099498;28;20299;-62
2022/03/09 03:52:28;;;;;;;;;;;3.80;48.00;;;;;;5099876;28;19909;-62
2022/03/09 03:54:53;;;;;;;;;;;3.80;47.80;;;;;;5098809;28;19912;-62
2022/03/09 03:57:19;;;;;;;;;;;4.00;47.20;;;;;;5098031;28;19923;-63
2022/03/09 03:59:44;;;;;;;;;;;4.00;46.80;;;;;;5097455;28;19989;-62
2022/03/09 04:02:10;;;;;;;;;;;4.00;46.70;;;;;;5097488;28;19908;-62
2022/03/09 04:04:35;;;;;;;;;;;4.10;46.30;;;;;;5097602;28;20273;-62
2022/03/09 04:07:01;;;;;;;;;;;4.00;46.60;;;;;;5097478;28;19930;-63
2022/03/09 04:09:27;;;;;;;;;;;4.10;47.20;;;;;;5096972;28;20286;-63
2022/03/09 04:11:52;;;;;;;;;;;4.10;46.70;;;;;;5097152;28;19908;-63
2022/03/09 04:14:22;;;;;;;;;;;4.30;45.90;;;;;;5097195;28;19950;-64
2022/03/09 04:16:50;;;;;;;;;;;4.50;45.30;;;;;;5113692;28;19916;-61
2022/03/09 04:19:16;;;;;;;;;;;4.60;44.40;;;;;;5101002;28;20334;-63
2022/03/09 04:21:42;;;;;;;;;;;4.60;44.40;;;;;;5096821;28;19909;-63
2022/03/09 04:24:07;;;;;;;;;;;4.50;44.60;;;;;;5096593;28;20266;-64
2022/03/09 04:26:33;;;;;;;;;;;4.40;44.80;;;;;;5096453;28;19912;-62
2022/03/09 04:28:59;;;;;;;;;;;4.10;46.10;;;;;;5095908;28;19931;-61
2022/03/09 04:31:25;;;;;;;;;;;4.10;47.00;;;;;;5094891;28;20283;-62
2022/03/09 04:33:50;;;;;;;;;;;4.00;47.20;;;;;;5096307;28;19908;-62
2022/03/09 04:36:16;;;;;;;;;;;3.90;47.00;;;;;;5096100;28;20370;-62
2022/03/09 04:38:42;;;;;;;;;;;4.00;47.10;;;;;;5096221;28;19914;-62
2022/03/09 04:41:07;;;;;;;;;;;4.00;46.90;;;;;;5096257;28;19916;-63
2022/03/09 04:43:33;;;;;;;;;;;3.90;46.80;;;;;;5096217;28;19981;-61
2022/03/09 04:45:58;;;;;;;;;;;4.00;46.70;;;;;;5096721;28;19908;-62
2022/03/09 04:48:24;;;;;;;;;;;4.00;47.10;;;;;;5097412;28;19908;-62
2022/03/09 04:50:49;;;;;;;;;;;4.10;45.70;;;;;;5098101;28;20002;-62
2022/03/09 04:53:15;;;;;;;;;;;4.00;46.20;;;;;;5098742;28;20375;-62
2022/03/09 04:55:40;;;;;;;;;;;4.00;47.00;;;;;;5097221;28;19908;-63
2022/03/09 04:58:06;;;;;;;;;;;3.80;47.60;;;;;;5100084;28;19909;-62
2022/03/09 05:00:32;;;;;;;;;;;3.70;48.00;;;;;;5099670;28;20021;-62
2022/03/09 05:02:57;;;;;;;;;;;3.70;48.60;;;;;;5099426;28;19908;-63
2022/03/09 05:05:23;;;;;;;;;;;3.70;48.50;;;;;;5100130;28;20359;-63
2022/03/09 05:07:48;;;;;;;;;;;3.60;49.10;;;;;;5098380;28;19908;-62
2022/03/09 05:10:14;;;;;;;;;;;3.60;49.60;;;;;;5095731;28;19908;-62
2022/03/09 05:12:39;;;;;;;;;;;3.70;48.90;;;;;;5095304;28;19956;-63
2022/03/09 05:15:05;;;;;;;;;;;3.60;48.90;;;;;;5095276;28;20358;-61
2022/03/09 05:17:31;;;;;;;;;;;3.70;48.90;;;;;;5095009;28;19954;-61
2022/03/09 05:19:57;;;;;;;;;;;3.60;49.10;;;;;;5095085;28;19957;-62
2022/03/09 05:22:24;;;;;;;;;;;3.70;48.50;;;;;;5095225;28;19912;-62
2022/03/09 05:24:50;;;;;;;;;;;3.70;48.70;;;;;;5095708;28;20306;-62
2022/03/09 05:27:16;;;;;;;;;;;3.70;48.70;;;;;;5095344;28;19908;-62
2022/03/09 05:29:41;;;;;;;;;;;3.70;48.70;;;;;;5094810;28;20280;-61
2022/03/09 05:32:07;;;;;;;;;;;3.80;48.30;;;;;;5095112;28;20049;-61
2022/03/09 05:34:33;;;;;;;;;;;3.90;47.50;;;;;;5095411;28;19981;-62
2022/03/09 05:36:58;;;;;;;;;;;3.90;47.90;;;;;;5095056;28;19916;-61
2022/03/09 05:39:24;;;;;;;;;;;3.90;47.80;;;;;;5094970;28;20256;-61
2022/03/09 05:41:49;;;;;;;;;;;4.00;47.40;;;;;;5094447;28;20280;-62
2022/03/09 05:44:15;;;;;;;;;;;4.10;46.50;;;;;;5095052;28;19912;-62
2022/03/09 05:46:41;;;;;;;;;;;4.00;46.10;;;;;;5094767;28;20266;-60
2022/03/09 05:49:07;;;;;;;;;;;4.10;46.90;;;;;;5094725;28;19908;-61
2022/03/09 05:51:32;;;;;;;;;;;4.30;45.60;;;;;;5094892;28;19961;-62
2022/03/09 05:53:58;;;;;;;;;;;4.90;41.50;;;;;;5094696;28;19912;-60
2022/03/09 05:56:24;;;;;;;;;;;5.30;39.70;;;;;;5094736;28;19965;-61
2022/03/09 05:58:50;;;;;;;;;;;5.60;38.70;;;;;;5094764;28;19908;-62
2022/03/09 06:01:15;;;;;;;;;;;5.80;38.10;;;;;;5094796;28;19969;-62
2022/03/09 06:03:41;;;;;;;;;;;6.00;37.50;;;;;;5094735;28;20011;-62
2022/03/09 06:06:07;;;;;;;;;;;6.00;37.20;;;;;;5094825;28;19976;-62
2022/03/09 06:08:32;;;;;;;;;;;6.10;37.10;;;;;;5094643;28;19908;-62
2022/03/09 06:10:58;;;;;;;;;;;6.10;37.00;;;;;;5095306;28;19908;-62
2022/03/09 06:13:23;;;;;;;;;;;6.10;36.90;;;;;;5094964;28;19912;-62
2022/03/09 06:15:49;;;;;;;;;;;6.20;36.80;;;;;;5094191;28;19912;-61
2022/03/09 06:18:15;;;;;;;;;;;6.20;37.10;;;;;;5094804;28;19920;-61
2022/03/09 06:20:40;;;;;;;;;;;6.20;36.80;;;;;;5094763;28;19908;-62
2022/03/09 06:23:06;;;;;;;;;;;6.20;36.80;;;;;;5094840;28;19915;-63
2022/03/09 06:25:32;;;;;;;;;;;6.30;36.50;;;;;;5094663;28;19915;-62
2022/03/09 06:27:58;;;;;;;;;;;6.30;36.60;;;;;;5094827;28;20339;-61
2022/03/09 06:30:24;;;;;;;;;;;6.40;36.60;;;;;;5094260;28;19912;-62
2022/03/09 06:32:49;;;;;;;;;;;6.40;36.30;;;;;;5093284;28;19908;-62
2022/03/09 06:35:15;;;;;;;;;;;6.40;36.50;;;;;;5093122;28;19961;-62
2022/03/09 06:37:41;;;;;;;;;;;6.40;36.30;;;;;;5095392;28;20241;-62
2022/03/09 06:40:08;;;;;;;;;;;6.50;36.20;;;;;;5094542;28;19908;-61
2022/03/09 06:42:36;;;;;;;;;;;6.50;36.20;;;;;;5094400;28;20007;-61
2022/03/09 06:45:02;;;;;;;;;;;6.50;36.20;;;;;;5094298;28;19981;-62
2022/03/09 06:47:27;;;;;;;;;;;6.50;36.10;;;;;;5094783;28;19908;-61
2022/03/09 06:49:53;;;;;;;;;;;6.60;35.70;;;;;;5094560;28;19908;-62
2022/03/09 06:52:19;;;;;;;;;;;6.60;35.90;;;;;;5095015;28;19909;-61
2022/03/09 06:54:44;;;;;;;;;;;6.70;35.70;;;;;;5098381;28;19908;-63
2022/03/09 06:57:10;;;;;;;;;;;6.80;35.70;;;;;;5098606;28;19916;-61
2022/03/09 06:59:37;;;;;;;;;;;7.10;35.30;;;;;;5098398;28;19908;-63
2022/03/09 07:02:03;;;;;;;;;;;7.20;34.90;;;;;;5080537;28;19919;-62
2022/03/09 07:04:28;;;;;;;;;;;7.50;35.20;;;;;;5098906;28;19908;-58
2022/03/09 07:06:54;;;;;;;;;;;8.20;42.60;;;;;;5099046;28;19912;-64
2022/03/09 07:09:19;;;;;;;;;;;8.50;39.40;;;;;;5114609;28;19915;-58
2022/03/09 07:11:45;;;;;;;;;;;8.80;36.20;;;;;;5102163;28;19908;-58
2022/03/09 07:14:11;;;;;;;;;;;9.00;35.10;;;;;;5098046;28;19915;-59
2022/03/09 07:16:37;;;;;;;;;;;9.10;35.50;;;;;;5089820;28;19924;-58
2022/03/09 07:19:02;;;;;;;;;;;9.20;33.90;;;;;;5087185;28;19921;-61
2022/03/09 07:21:28;;;;;;;;;;;9.40;33.90;;;;;;5087315;28;19954;-58
2022/03/09 07:23:53;;;;;;;;;;;9.50;33.50;;;;;;5086499;28;19912;-60
2022/03/09 07:26:19;;;;;;;;;;;9.60;33.80;;;;;;5093817;28;19916;-61
2022/03/09 07:28:44;;;;;;;;;;;9.50;31.00;;;;;;5095695;28;19912;-62
2022/03/09 07:31:10;;;;;;;;;;;9.30;31.00;;;;;;5085862;28;19923;-61
2022/03/09 07:33:36;;;;;;;;;;;9.20;31.60;;;;;;5089876;28;19908;-61
2022/03/09 07:36:01;;;;;;;;;;;9.10;31.50;;;;;;5089082;28;20038;-68
2022/03/09 07:38:27;;;;;;;;;;;9.10;31.40;;;;;;5099645;28;19908;-61
2022/03/09 07:40:53;;;;;;;;;;;9.10;31.20;;;;;;5096142;28;19908;-61
2022/03/09 07:43:18;;;;;;;;;;;9.20;31.00;;;;;;5097413;28;19908;-61
2022/03/09 07:45:44;;;;;;;;;;;9.20;30.70;;;;;;5090120;28;19908;-65
2022/03/09 07:48:10;;;;;;;;;;;9.10;30.90;;;;;;5088738;28;20393;-70
2022/03/09 07:50:36;;;;;;;;;;;9.30;31.10;;;;;;5080745;28;19957;-58
2022/03/09 07:53:03;;;;;;;;;;;9.40;30.40;;;;;;5078071;28;19915;-61
2022/03/09 07:55:28;;;;;;;;;;;9.40;30.40;;;;;;5079772;28;19913;-61
2022/03/09 07:57:54;;;;;;;;;;;9.50;31.00;;;;;;5086705;28;19920;-64
2022/03/09 08:00:19;;;;;;;;;;;9.70;30.60;;;;;;5086164;28;20036;-63
2022/03/09 08:02:45;;;;;;;;;;;9.90;30.70;;;;;;5086732;28;19967;-63
2022/03/09 08:05:11;;;;;;;;;;;10.10;30.00;;;;;;5086304;28;20356;-61
2022/03/09 08:07:36;;;;;;;;;;;10.20;29.50;;;;;;5087074;28;19916;-64
2022/03/09 08:10:02;;;;;;;;;;;10.20;29.30;;;;;;5086131;28;19908;-62
2022/03/09 08:12:28;;;;;;;;;;;10.20;29.50;;;;;;5085208;28;19908;-65
2022/03/09 08:14:53;;;;;;;;;;;10.30;29.30;;;;;;5085492;28;20386;-61
2022/03/09 08:17:19;;;;;;;;;;;10.40;29.10;;;;;;5087272;28;19977;-60
2022/03/09 08:19:45;;;;;;;;;;;10.40;29.20;;;;;;5088862;28;20401;-62
2022/03/09 08:22:11;;;;;;;;;;;10.60;29.30;;;;;;5081682;28;19990;-62
2022/03/09 08:24:36;;;;;;;;;;;10.80;28.90;;;;;;5087432;28;19908;-61
2022/03/09 08:27:03;;;;;;;;;;;10.90;28.70;;;;;;5086088;28;19908;-64
2022/03/09 08:29:29;;;;;;;;;;;10.90;28.40;;;;;;5090571;28;20368;-65
2022/03/09 08:31:55;;;;;;;;;;;11.00;28.10;;;;;;5096559;28;19909;-62
2022/03/09 08:34:20;;;;;;;;;;;11.10;27.60;;;;;;5096476;28;19927;-62
2022/03/09 08:36:46;;;;;;;;;;;11.10;28.40;;;;;;5096225;28;19916;-62
2022/03/09 08:39:11;;;;;;;;;;;11.10;28.10;;;;;;5096271;28;19915;-62
2022/03/09 08:41:37;;;;;;;;;;;10.60;33.60;;;;;;5096277;28;19968;-70
2022/03/09 08:44:03;;;;;;;;;;;10.60;34.90;;;;;;5096213;28;19908;-64
2022/03/09 08:46:28;;;;;;;;;;;10.70;34.60;;;;;;5094718;28;19912;-62
2022/03/09 08:48:54;;;;;;;;;;;11.00;34.70;;;;;;5094463;28;20015;-61
2022/03/09 08:51:21;;;;;;;;;;;10.80;35.80;;;;;;5086026;28;19944;-62
2022/03/09 08:53:47;;;;;;;;;;;10.90;37.30;;;;;;5087116;28;19919;-64
2022/03/09 08:56:13;;;;;;;;;;;11.20;38.30;;;;;;5083828;28;19916;-66
2022/03/09 08:58:38;;;;;;;;;;;11.40;38.90;;;;;;5086507;28;19952;-69
2022/03/09 09:01:04;;;;;;;;;;;11.70;37.50;;;;;;5086257;28;19981;-64
2022/03/09 09:03:30;;;;;;;;;;;11.80;38.10;;;;;;5084198;28;19916;-60
2022/03/09 09:05:56;;;;;;;;;;;11.60;39.60;;;;;;5093172;28;20003;-59
2022/03/09 09:08:21;;;;;;;;;;;11.20;41.10;;;;;;5096371;28;20016;-65
2022/03/09 09:10:48;;;;;;;;;;;10.90;42.10;;;;;;5096208;28;19915;-61
2022/03/09 09:13:14;;;;;;;;;;;10.60;43.10;;;;;;5096053;28;19929;-58
2022/03/09 09:15:39;;;;;;;;;;;10.60;43.10;;;;;;5094821;28;19931;-66
2022/03/09 09:18:06;;;;;;;;;;;10.30;43.10;;;;;;5095456;28;19920;-61
2022/03/09 09:20:32;;;;;;;;;;;10.10;44.10;;;;;;5096220;28;19909;-64
2022/03/09 09:22:58;;;;;;;;;;;9.80;44.00;;;;;;5096563;28;19908;-62
2022/03/09 09:25:24;;;;;;;;;;;9.90;44.00;;;;;;5099471;28;19920;-60
2022/03/09 09:27:50;;;;;;;;;;;9.70;43.40;;;;;;5109625;28;19912;-59
2022/03/09 09:30:16;;;;;;;;;;;9.80;43.00;;;;;;5108460;28;19908;-60
2022/03/09 09:32:41;;;;;;;;;;;9.90;43.30;;;;;;5109335;28;19961;-67
2022/03/09 09:35:08;;;;;;;;;;;9.90;42.70;;;;;;5100030;28;20000;-70
2022/03/09 09:37:33;;;;;;;;;;;10.10;42.50;;;;;;5084600;28;19963;-66
2022/03/09 09:39:59;;;;;;;;;;;10.30;39.70;;;;;;5089890;28;19908;-69
2022/03/09 09:42:30;;;;;;;;;;;10.30;40.10;;;;;;5095754;28;19943;-67
2022/03/09 09:44:57;;;;;;;;;;;10.30;39.90;;;;;;5096028;28;20283;-60
2022/03/09 09:47:23;;;;;;;;;;;10.10;41.30;;;;;;5095078;28;19909;-68
2022/03/09 09:49:49;;;;;;;;;;;10.30;40.80;;;;;;5093577;28;19908;-70
2022/03/09 09:52:15;;;;;;;;;;;10.10;37.80;;;;;;5095082;28;20372;-62
2022/03/09 09:54:41;;;;;;;;;;;10.10;38.00;;;;;;5095310;28;19908;-67
2022/03/09 09:57:07;;;;;;;;;;;9.90;37.80;;;;;;5094598;28;20356;-68
2022/03/09 09:59:32;;;;;;;;;;;10.00;38.20;;;;;;5095862;28;19953;-69
2022/03/09 10:01:59;;;;;;;;;;;10.10;37.00;;;;;;5095566;28;19930;-59
2022/03/09 10:04:24;;;;;;;;;;;10.20;36.90;;;;;;5095712;28;19918;-67
2022/03/09 10:06:50;;;;;;;;;;;10.30;37.50;;;;;;5110638;28;19908;-64
2022/03/09 10:09:15;;;;;;;;;;;10.40;37.10;;;;;;5102289;28;19908;-67
2022/03/09 10:11:47;;;;;;;;;;;10.50;38.10;;;;;;5095348;28;20428;-69
2022/03/09 10:14:13;;;;;;;;;;;10.30;37.20;;;;;;5094974;28;19954;-63
2022/03/09 10:16:58;;;;;;;;;;;10.30;37.90;;;;;;5094835;28;19916;-67
2022/03/09 10:19:31;;;;;;;;;;;10.30;38.10;;;;;;5094344;28;19928;-60
2022/03/09 10:21:56;;;;;;;;;;;10.10;38.90;;;;;;5094814;28;20348;-63
2022/03/09 10:24:32;;;;;;;;;;;10.20;40.30;;;;;;5094788;28;19915;-67
2022/03/09 10:27:00;;;;;;;;;;;10.00;41.10;;;;;;5093976;28;20425;-60
2022/03/09 10:29:27;;;;;;;;;;;10.10;40.80;;;;;;5094131;28;19908;-62
2022/03/09 10:31:59;;;;;;;;;;;10.20;41.30;;;;;;5092777;28;19915;-60
2022/03/09 10:34:25;;;;;;;;;;;10.50;41.40;;;;;;5092520;28;19908;-57
2022/03/09 10:37:06;;;;;;;;;;;10.70;42.10;;;;;;5093962;28;20317;-62
2022/03/09 10:39:36;;;;;;;;;;;10.90;42.10;;;;;;5093269;28;20224;-57
2022/03/09 10:42:03;;;;;;;;;;;10.70;41.10;;;;;;5093792;28;19946;-64
2022/03/09 10:44:41;;;;;;;;;;;10.70;41.70;;;;;;5093969;28;19909;-59
2022/03/09 10:47:07;;;;;;;;;;;10.50;43.00;;;;;;5094410;28;20320;-58
2022/03/09 10:49:32;;;;;;;;;;;10.70;42.80;;;;;;5076319;28;19951;-58
2022/03/09 10:51:58;;;;;;;;;;;11.10;41.20;;;;;;5094644;28;19951;-61
2022/03/09 10:54:25;;;;;;;;;;;11.40;41.00;;;;;;5094808;28;20363;-61
2022/03/09 10:57:02;;;;;;;;;;;11.20;40.50;;;;;;5094542;28;19916;-70
2022/03/09 10:59:28;;;;;;;;;;;11.30;40.20;;;;;;5094602;28;19908;-70
2022/03/09 11:02:09;;;;;;;;;;;11.40;39.40;;;;;;5094412;28;19919;-66
2022/03/09 11:04:35;;;;;;;;;;;11.70;37.10;;;;;;5094316;28;20009;-66
2022/03/09 11:07:01;;;;;;;;;;;11.70;34.50;;;;;;5094209;28;20010;-70
2022/03/09 11:09:27;;;;;;;;;;;11.80;33.50;;;;;;5094087;28;19943;-67
2022/03/09 11:11:53;;;;;;;;;;;12.10;34.40;;;;;;5092966;28;19908;-58
2022/03/09 11:14:19;;;;;;;;;;;12.10;35.10;;;;;;5093480;28;20321;-58
2022/03/09 11:16:45;;;;;;;;;;;12.00;34.70;;;;;;5093819;28;20018;-64
2022/03/09 11:19:13;;;;;;;;;;;12.20;35.50;;;;;;5088921;28;19947;-60
2022/03/09 11:21:39;;;;;;;;;;;12.30;34.10;;;;;;5087512;28;20020;-58
2022/03/09 11:24:10;;;;;;;;;;;12.50;32.40;;;;;;5082079;28;19912;-59
2022/03/09 11:26:44;;;;;;;;;;;12.40;32.70;;;;;;5086883;28;19916;-58
2022/03/09 11:29:12;;;;;;;;;;;12.30;32.90;;;;;;5102740;28;19900;-64
2022/03/09 11:31:48;;;;;;;;;;;12.40;32.90;;;;;;5107690;28;19908;-64
2022/03/09 11:34:32;;;;;;;;;;;12.30;30.60;;;;;;5111184;28;20007;-56
2022/03/09 11:36:59;;;;;;;;;;;12.20;32.20;;;;;;5094452;28;19917;-63
2022/03/09 11:39:25;;;;;;;;;;;12.10;34.50;;;;;;5095553;28;19915;-61
2022/03/09 11:42:09;;;;;;;;;;;12.40;34.40;;;;;;5098411;28;19961;-64
2022/03/09 11:44:36;;;;;;;;;;;12.20;33.00;;;;;;5098067;28;19908;-65
2022/03/09 11:47:03;;;;;;;;;;;12.20;33.00;;;;;;5097744;28;19948;-66
2022/03/09 11:49:50;;;;;;;;;;;12.50;30.80;;;;;;5092519;28;20377;-63
2022/03/09 11:52:17;;;;;;;;;;;11.80;30.90;;;;;;5076849;28;19977;-65
2022/03/09 11:54:42;;;;;;;;;;;11.60;32.00;;;;;;5075877;28;19965;-66
2022/03/09 11:57:08;;;;;;;;;;;11.70;33.20;;;;;;5079079;28;20007;-67
2022/03/09 11:59:34;;;;;;;;;;;11.60;34.40;;;;;;5079205;28;19920;-59
2022/03/09 12:02:07;;;;;;;;;;;11.90;34.70;;;;;;5076052;28;19909;-61
2022/03/09 12:04:50;;;;;;;;;;;12.20;32.90;;;;;;5076294;28;19909;-65
2022/03/09 12:07:45;;;;;;;;;;;12.50;31.80;;;;;;5075947;28;19916;-70
2022/03/09 12:10:13;;;;;;;;;;;12.50;32.70;;;;;;5067007;28;19916;-62
2022/03/09 12:12:58;;;;;;;;;;;12.60;34.50;;;;;;5076267;28;19936;-61
2022/03/09 12:15:24;;;;;;;;;;;12.60;34.80;;;;;;5075808;28;19957;-61
2022/03/09 12:17:49;;;;;;;;;;;12.30;34.50;;;;;;5076309;28;19925;-66
2022/03/09 12:20:21;;;;;;;;;;;12.40;34.00;;;;;;5076448;28;20001;-62
2022/03/09 12:22:56;;;;;;;;;;;12.40;34.00;;;;;;5076245;28;19931;-68
2022/03/09 12:25:38;;;;;;;;;;;12.60;35.10;;;;;;5075943;28;19955;-65
2022/03/09 12:28:29;;;;;;;;;;;12.50;34.60;;;;;;5076250;28;19920;-66
2022/03/09 12:30:59;;;;;;;;;;;12.50;36.10;;;;;;5075823;28;20352;-70
2022/03/09 12:33:26;;;;;;;;;;;12.10;35.60;;;;;;5075660;28;19916;-72
2022/03/09 12:36:12;;;;;;;;;;;12.20;35.90;;;;;;5088089;28;19908;-61
2022/03/09 12:38:37;;;;;;;;;;;12.40;34.30;;;;;;5077960;28;20397;-64
2022/03/09 12:41:04;;;;;;;;;;;12.50;32.70;;;;;;5078307;28;20003;-61
2022/03/09 12:43:45;;;;;;;;;;;12.20;30.30;;;;;;5075453;28;19908;-59
2022/03/09 12:46:11;;;;;;;;;;;12.00;30.50;;;;;;5094273;28;19915;-60
2022/03/09 12:48:38;;;;;;;;;;;12.10;31.20;;;;;;5096069;28;19908;-60
2022/03/09 12:51:05;;;;;;;;;;;12.10;29.10;;;;;;5095585;28;20417;-67
2022/03/09 12:53:31;;;;;;;;;;;12.20;28.60;;;;;;5095604;28;19908;-59
2022/03/09 12:55:56;;;;;;;;;;;12.30;29.00;;;;;;5078754;28;19915;-64
2022/03/09 12:58:23;;;;;;;;;;;12.50;28.30;;;;;;5075092;28;20356;-61
2022/03/09 13:01:08;;;;;;;;;;;12.60;27.10;;;;;;5075062;28;19931;-59
2022/03/09 13:03:34;;;;;;;;;;;12.60;27.70;;;;;;5083095;28;19918;-58
2022/03/09 13:06:20;;;;;;;;;;;12.50;28.10;;;;;;5077184;28;20003;-60
2022/03/09 13:08:46;;;;;;;;;;;12.30;28.90;;;;;;5090539;28;19908;-61
2022/03/09 13:11:12;;;;;;;;;;;12.60;29.40;;;;;;5075205;28;19916;-60
2022/03/09 13:13:37;;;;;;;;;;;12.70;29.10;;;;;;5074803;28;20287;-61
2022/03/09 13:16:03;;;;;;;;;;;12.70;29.70;;;;;;5075663;28;20011;-59
2022/03/09 13:18:32;;;;;;;;;;;12.80;29.80;;;;;;5077364;28;20280;-60
2022/03/09 13:20:58;;;;;;;;;;;12.60;29.30;;;;;;5078895;28;19931;-59
2022/03/09 13:23:32;;;;;;;;;;;12.60;29.30;;;;;;5086045;28;19916;-60
2022/03/09 13:26:14;;;;;;;;;;;12.70;29.70;;;;;;5091679;28;19954;-61
2022/03/09 13:28:41;;;;;;;;;;;12.80;29.80;;;;;;5089886;28;19951;-60
2022/03/09 13:31:06;;;;;;;;;;;12.70;30.90;;;;;;5076808;28;19954;-60
2022/03/09 13:33:32;;;;;;;;;;;12.60;32.70;;;;;;5073890;28;19913;-59
2022/03/09 13:35:57;;;;;;;;;;;12.60;31.00;;;;;;5073553;28;19924;-63
2022/03/09 13:38:25;;;;;;;;;;;12.50;31.60;;;;;;5073989;28;19912;-61
2022/03/09 13:40:52;;;;;;;;;;;12.60;32.00;;;;;;5072723;28;19915;-61
2022/03/09 13:43:18;;;;;;;;;;;12.50;31.40;;;;;;5074206;28;20348;-61
2022/03/09 13:45:44;;;;;;;;;;;12.60;31.40;;;;;;5073830;28;20469;-60
2022/03/09 13:48:26;;;;;;;;;;;12.60;31.70;;;;;;5074247;28;19916;-60
2022/03/09 13:51:00;;;;;;;;;;;12.70;30.90;;;;;;5074428;28;19940;-60
2022/03/09 13:53:31;;;;;;;;;;;12.70;30.70;;;;;;5074627;28;19909;-60
2022/03/09 13:55:57;;;;;;;;;;;12.60;30.60;;;;;;5074589;28;20283;-61
2022/03/09 13:58:23;;;;;;;;;;;12.70;29.90;;;;;;5076264;28;19975;-64
2022/03/09 14:00:49;;;;;;;;;;;12.30;28.80;;;;;;5079408;28;19935;-62
2022/03/09 14:03:19;;;;;;;;;;;12.00;31.00;;;;;;5087616;28;19909;-64
2022/03/09 14:05:51;;;;;;;;;;;11.90;30.90;;;;;;5080286;28;19931;-61
2022/03/09 14:08:25;;;;;;;;;;;11.80;31.00;;;;;;5074375;28;20356;-62
2022/03/09 14:10:51;;;;;;;;;;;12.00;30.10;;;;;;5074125;28;20352;-62
2022/03/09 14:13:18;;;;;;;;;;;11.70;29.80;;;;;;5072442;28;19946;-60
2022/03/09 14:15:46;;;;;;;;;;;11.80;30.60;;;;;;5074168;28;19992;-63
2022/03/09 14:18:12;;;;;;;;;;;11.90;31.20;;;;;;5074196;28;20288;-61
2022/03/09 14:20:37;;;;;;;;;;;12.00;32.00;;;;;;5074055;28;19913;-65
2022/03/09 14:23:04;;;;;;;;;;;12.10;30.60;;;;;;5072786;28;19912;-64